BEL49 EGPH-EBBR
Flight info
| Callsign | BEL49 |
|---|---|
| Flight time | 1h 13m |
| Altitude | 37000 |
| Route | TLA Y96 OTBUN DCT NATEB DCT GODOS DCT ALFEN DCT ORCAV Z310 WOODY |
| Aircraft | A320/M-SDE3FGHIRWY/LB1 |
Departure
| Time | 2026-05-04 14:47 |
|---|---|
| Airport | Edinburgh Airport (EGPH) |
Arrival
| Time | 2026-05-04 16:01 |
|---|---|
| Airport | Brussels Airport (EBBR) |
| Time | Latitude | Longitude | Altitude | Speed | Heading |
|---|---|---|---|---|---|
| 2026-05-04 14:47 | 55.83312 | -3.56771 | 8283 ft | 301 kts | 130° |
| 2026-05-04 14:47 | 55.82116 | -3.53680 | 9168 ft | 304 kts | 130° |
| 2026-05-04 14:48 | 55.80505 | -3.51285 | 10002 ft | 302 kts | 156° |
| 2026-05-04 14:48 | 55.78543 | -3.49911 | 10447 ft | 318 kts | 166° |
| 2026-05-04 14:48 | 55.76326 | -3.48856 | 10701 ft | 340 kts | 170° |
| 2026-05-04 14:48 | 55.73947 | -3.47865 | 11021 ft | 359 kts | 170° |
| 2026-05-04 14:49 | 55.71489 | -3.46804 | 11673 ft | 366 kts | 168° |
| 2026-05-04 14:49 | 55.69017 | -3.45640 | 12399 ft | 371 kts | 167° |
| 2026-05-04 14:49 | 55.66503 | -3.44360 | 13128 ft | 376 kts | 166° |
| 2026-05-04 14:49 | 55.63984 | -3.43009 | 13827 ft | 381 kts | 165° |
| 2026-05-04 14:50 | 55.61429 | -3.41603 | 14414 ft | 386 kts | 165° |
| 2026-05-04 14:50 | 55.58855 | -3.40174 | 15038 ft | 390 kts | 165° |
| 2026-05-04 14:50 | 55.56264 | -3.38695 | 15675 ft | 394 kts | 161° |
| 2026-05-04 14:50 | 55.53800 | -3.36451 | 16312 ft | 402 kts | 148° |
| 2026-05-04 14:51 | 55.51648 | -3.33229 | 16937 ft | 409 kts | 134° |
| 2026-05-04 14:51 | 55.49951 | -3.29173 | 17562 ft | 415 kts | 120° |
| 2026-05-04 14:51 | 55.48821 | -3.24465 | 18197 ft | 419 kts | 106° |
| 2026-05-04 14:51 | 55.48266 | -3.19381 | 18765 ft | 423 kts | 99° |
| 2026-05-04 14:52 | 55.47774 | -3.14326 | 19370 ft | 424 kts | 100° |
| 2026-05-04 14:52 | 55.47227 | -3.09209 | 19956 ft | 426 kts | 101° |
| 2026-05-04 14:52 | 55.46645 | -3.04073 | 20521 ft | 428 kts | 102° |
| 2026-05-04 14:52 | 55.45753 | -2.99050 | 21028 ft | 431 kts | 112° |
| 2026-05-04 14:53 | 55.44416 | -2.94305 | 21540 ft | 434 kts | 120° |
| 2026-05-04 14:53 | 55.42917 | -2.89674 | 22044 ft | 436 kts | 120° |
| 2026-05-04 14:53 | 55.41425 | -2.85001 | 22571 ft | 438 kts | 119° |
| 2026-05-04 14:53 | 55.39931 | -2.80294 | 23035 ft | 441 kts | 119° |
| 2026-05-04 14:54 | 55.38429 | -2.75557 | 23497 ft | 444 kts | 119° |
| 2026-05-04 14:54 | 55.36911 | -2.70790 | 23874 ft | 447 kts | 119° |
| 2026-05-04 14:54 | 55.35383 | -2.66009 | 24262 ft | 449 kts | 119° |
| 2026-05-04 14:54 | 55.33850 | -2.61234 | 24678 ft | 450 kts | 119° |
| 2026-05-04 14:55 | 55.32324 | -2.56493 | 25000 ft | 453 kts | 119° |
| 2026-05-04 14:55 | 55.30743 | -2.51606 | 25341 ft | 456 kts | 119° |
| 2026-05-04 14:55 | 55.29164 | -2.46755 | 25682 ft | 458 kts | 119° |
| 2026-05-04 14:55 | 55.27580 | -2.41886 | 26024 ft | 460 kts | 119° |
| 2026-05-04 14:56 | 55.26007 | -2.37049 | 26367 ft | 462 kts | 119° |
| 2026-05-04 14:56 | 55.24414 | -2.32144 | 26680 ft | 465 kts | 119° |
| 2026-05-04 14:56 | 55.22814 | -2.27215 | 26991 ft | 467 kts | 118° |
| 2026-05-04 14:56 | 55.21199 | -2.22254 | 27308 ft | 468 kts | 119° |
| 2026-05-04 14:57 | 55.19576 | -2.17299 | 27646 ft | 469 kts | 119° |
| 2026-05-04 14:57 | 55.17949 | -2.12354 | 27976 ft | 470 kts | 119° |
| 2026-05-04 14:57 | 55.16291 | -2.07332 | 28241 ft | 472 kts | 119° |
| 2026-05-04 14:57 | 55.14645 | -2.02356 | 28509 ft | 473 kts | 119° |
| 2026-05-04 14:58 | 55.12995 | -1.97372 | 28752 ft | 475 kts | 119° |
| 2026-05-04 14:58 | 55.11336 | -1.92350 | 28988 ft | 476 kts | 119° |
| 2026-05-04 14:58 | 55.09682 | -1.87341 | 29324 ft | 475 kts | 118° |
| 2026-05-04 14:58 | 55.08027 | -1.82342 | 29673 ft | 475 kts | 118° |
| 2026-05-04 14:59 | 55.06372 | -1.77365 | 30000 ft | 474 kts | 119° |
| 2026-05-04 14:59 | 55.04711 | -1.72389 | 30291 ft | 473 kts | 119° |
| 2026-05-04 14:59 | 55.01450 | -1.62422 | 30868 ft | 471 kts | 118° |
| 2026-05-04 15:00 | 54.99893 | -1.57481 | 31171 ft | 470 kts | 117° |
| 2026-05-04 15:00 | 54.98319 | -1.52423 | 31520 ft | 466 kts | 117° |
| 2026-05-04 15:00 | 54.96802 | -1.47538 | 31879 ft | 463 kts | 117° |
| 2026-05-04 15:01 | 54.93727 | -1.37732 | 32502 ft | 461 kts | 117° |
| 2026-05-04 15:01 | 54.92180 | -1.32860 | 32793 ft | 460 kts | 117° |
| 2026-05-04 15:01 | 54.90681 | -1.28165 | 33058 ft | 460 kts | 117° |
| 2026-05-04 15:01 | 54.89128 | -1.23322 | 33353 ft | 459 kts | 117° |
| 2026-05-04 15:02 | 54.87618 | -1.18624 | 33641 ft | 458 kts | 118° |
| 2026-05-04 15:02 | 54.86067 | -1.13804 | 33946 ft | 457 kts | 118° |
| 2026-05-04 15:02 | 54.84516 | -1.08984 | 34189 ft | 457 kts | 118° |
| 2026-05-04 15:02 | 54.82967 | -1.04173 | 34427 ft | 457 kts | 118° |
| 2026-05-04 15:03 | 54.81424 | -0.99380 | 34668 ft | 457 kts | 118° |
| 2026-05-04 15:03 | 54.79890 | -0.94620 | 34891 ft | 457 kts | 118° |
| 2026-05-04 15:03 | 54.78320 | -0.89756 | 35120 ft | 457 kts | 118° |
| 2026-05-04 15:03 | 54.76763 | -0.84955 | 35320 ft | 458 kts | 118° |
| 2026-05-04 15:04 | 54.75217 | -0.80202 | 35473 ft | 459 kts | 119° |
| 2026-05-04 15:04 | 54.73650 | -0.75396 | 35766 ft | 456 kts | 118° |
| 2026-05-04 15:04 | 54.72074 | -0.70576 | 36078 ft | 454 kts | 119° |
| 2026-05-04 15:04 | 54.70521 | -0.65832 | 36274 ft | 453 kts | 119° |
| 2026-05-04 15:05 | 54.68985 | -0.61144 | 36461 ft | 454 kts | 119° |
| 2026-05-04 15:05 | 54.67427 | -0.56394 | 36609 ft | 455 kts | 119° |
| 2026-05-04 15:05 | 54.65867 | -0.51644 | 36786 ft | 455 kts | 119° |
| 2026-05-04 15:05 | 54.64300 | -0.46884 | 36969 ft | 454 kts | 119° |
| 2026-05-04 15:06 | 54.61161 | -0.37379 | 37043 ft | 457 kts | 119° |
| 2026-05-04 15:07 | 54.56414 | -0.23130 | 37044 ft | 456 kts | 120° |
| 2026-05-04 15:07 | 54.53235 | -0.13605 | 37050 ft | 457 kts | 120° |
| 2026-05-04 15:08 | 54.50077 | -0.04175 | 37057 ft | 457 kts | 120° |
| 2026-05-04 15:08 | 54.46894 | 0.05288 | 37070 ft | 456 kts | 120° |
| 2026-05-04 15:09 | 54.43714 | 0.14704 | 37072 ft | 455 kts | 120° |
| 2026-05-04 15:09 | 54.40530 | 0.24108 | 37078 ft | 455 kts | 120° |
| 2026-05-04 15:10 | 54.35741 | 0.38153 | 37069 ft | 454 kts | 120° |
| 2026-05-04 15:11 | 54.30942 | 0.52154 | 37074 ft | 454 kts | 120° |
| 2026-05-04 15:11 | 54.27730 | 0.61474 | 37073 ft | 454 kts | 121° |
| 2026-05-04 15:12 | 54.24510 | 0.70776 | 37068 ft | 454 kts | 121° |
| 2026-05-04 15:12 | 54.21296 | 0.80053 | 37071 ft | 454 kts | 121° |
| 2026-05-04 15:13 | 54.18076 | 0.89326 | 37073 ft | 454 kts | 121° |
| 2026-05-04 15:13 | 54.14841 | 0.98570 | 37074 ft | 453 kts | 121° |
| 2026-05-04 15:14 | 54.11599 | 1.07813 | 37073 ft | 454 kts | 121° |
| 2026-05-04 15:14 | 54.08347 | 1.17042 | 37070 ft | 454 kts | 121° |
| 2026-05-04 15:15 | 54.05082 | 1.26288 | 37069 ft | 455 kts | 121° |
| 2026-05-04 15:15 | 54.02369 | 1.33943 | 37069 ft | 455 kts | 121° |
| 2026-05-04 15:16 | 53.97449 | 1.47744 | 37064 ft | 455 kts | 122° |
| 2026-05-04 15:17 | 53.92521 | 1.61520 | 37060 ft | 455 kts | 122° |
| 2026-05-04 15:17 | 53.87560 | 1.75275 | 37055 ft | 456 kts | 122° |
| 2026-05-04 15:18 | 53.84244 | 1.84434 | 37063 ft | 456 kts | 122° |
| 2026-05-04 15:19 | 53.79257 | 1.98153 | 37058 ft | 456 kts | 122° |
| 2026-05-04 15:19 | 53.74254 | 2.11856 | 37047 ft | 456 kts | 123° |
| 2026-05-04 15:20 | 53.70902 | 2.20963 | 37036 ft | 456 kts | 123° |
| 2026-05-04 15:20 | 53.67538 | 2.30084 | 37042 ft | 457 kts | 123° |
| 2026-05-04 15:21 | 53.64200 | 2.39106 | 37043 ft | 457 kts | 123° |
| 2026-05-04 15:22 | 53.59139 | 2.52737 | 37044 ft | 457 kts | 123° |
| 2026-05-04 15:22 | 53.54068 | 2.66320 | 37034 ft | 458 kts | 124° |
| 2026-05-04 15:23 | 53.50667 | 2.75369 | 37034 ft | 458 kts | 124° |
| 2026-05-04 15:23 | 53.47248 | 2.84433 | 37038 ft | 459 kts | 124° |
| 2026-05-04 15:24 | 53.40411 | 3.02511 | 37042 ft | 459 kts | 124° |
| 2026-05-04 15:25 | 53.36974 | 3.11528 | 37037 ft | 459 kts | 125° |
| 2026-05-04 15:26 | 53.31797 | 3.25041 | 37035 ft | 460 kts | 125° |
| 2026-05-04 15:26 | 53.26598 | 3.38562 | 37043 ft | 460 kts | 127° |
| 2026-05-04 15:27 | 53.19787 | 3.49655 | 37039 ft | 454 kts | 145° |
| 2026-05-04 15:28 | 53.12337 | 3.59321 | 37046 ft | 453 kts | 145° |
| 2026-05-04 15:29 | 53.04886 | 3.68998 | 37037 ft | 453 kts | 145° |
| 2026-05-04 15:30 | 52.89547 | 3.88745 | 37022 ft | 452 kts | 146° |
| 2026-05-04 15:31 | 52.83938 | 3.95899 | 37025 ft | 451 kts | 146° |
| 2026-05-04 15:32 | 52.71509 | 4.11708 | 37000 ft | 451 kts | 146° |
| 2026-05-04 15:34 | 52.59038 | 4.27446 | 36999 ft | 451 kts | 147° |
| 2026-05-04 15:34 | 52.51549 | 4.36843 | 37005 ft | 451 kts | 147° |
| 2026-05-04 15:35 | 52.44023 | 4.46141 | 37000 ft | 449 kts | 153° |
| 2026-05-04 15:35 | 52.41228 | 4.48279 | 37004 ft | 438 kts | 167° |
| 2026-05-04 15:36 | 52.35333 | 4.48974 | 37006 ft | 426 kts | 187° |
| 2026-05-04 15:36 | 52.29389 | 4.48205 | 36870 ft | 424 kts | 187° |
| 2026-05-04 15:37 | 52.26458 | 4.47809 | 36169 ft | 423 kts | 187° |
| 2026-05-04 15:37 | 52.23530 | 4.47412 | 35454 ft | 421 kts | 188° |
| 2026-05-04 15:37 | 52.20654 | 4.47026 | 34754 ft | 419 kts | 188° |
| 2026-05-04 15:37 | 52.17763 | 4.46637 | 34065 ft | 415 kts | 187° |
| 2026-05-04 15:38 | 52.14854 | 4.46249 | 33265 ft | 413 kts | 187° |
| 2026-05-04 15:38 | 52.12024 | 4.45877 | 32351 ft | 413 kts | 187° |
| 2026-05-04 15:38 | 52.09150 | 4.45502 | 31391 ft | 416 kts | 186° |
| 2026-05-04 15:38 | 52.06253 | 4.45124 | 30403 ft | 418 kts | 186° |
| 2026-05-04 15:39 | 52.03344 | 4.44746 | 29247 ft | 422 kts | 186° |
| 2026-05-04 15:39 | 52.00399 | 4.44365 | 27922 ft | 427 kts | 186° |
| 2026-05-04 15:39 | 51.94373 | 4.43584 | 25403 ft | 437 kts | 185° |
| 2026-05-04 15:40 | 51.91353 | 4.43191 | 24519 ft | 434 kts | 185° |
| 2026-05-04 15:40 | 51.88351 | 4.42800 | 23674 ft | 431 kts | 185° |
| 2026-05-04 15:40 | 51.85354 | 4.42409 | 22769 ft | 429 kts | 185° |
| 2026-05-04 15:40 | 51.82389 | 4.42024 | 21922 ft | 426 kts | 185° |
| 2026-05-04 15:41 | 51.79443 | 4.41642 | 21125 ft | 423 kts | 185° |
| 2026-05-04 15:41 | 51.76522 | 4.41264 | 20372 ft | 419 kts | 185° |
| 2026-05-04 15:41 | 51.73618 | 4.40891 | 19613 ft | 417 kts | 185° |
| 2026-05-04 15:41 | 51.70740 | 4.40522 | 18912 ft | 414 kts | 185° |
| 2026-05-04 15:42 | 51.67869 | 4.40153 | 18186 ft | 413 kts | 185° |
| 2026-05-04 15:42 | 51.65005 | 4.39785 | 17442 ft | 411 kts | 185° |
| 2026-05-04 15:42 | 51.62158 | 4.39418 | 16779 ft | 408 kts | 185° |
| 2026-05-04 15:42 | 51.59342 | 4.39054 | 16140 ft | 404 kts | 185° |
| 2026-05-04 15:43 | 51.56547 | 4.38694 | 15535 ft | 401 kts | 185° |
| 2026-05-04 15:43 | 51.53772 | 4.38337 | 15077 ft | 398 kts | 185° |
| 2026-05-04 15:43 | 51.51006 | 4.37981 | 14937 ft | 398 kts | 185° |
| 2026-05-04 15:43 | 51.48240 | 4.37626 | 14970 ft | 399 kts | 185° |
| 2026-05-04 15:44 | 51.45488 | 4.37274 | 14531 ft | 394 kts | 185° |
| 2026-05-04 15:44 | 51.42767 | 4.36906 | 14010 ft | 392 kts | 187° |
| 2026-05-04 15:44 | 51.40110 | 4.36000 | 13683 ft | 390 kts | 198° |
| 2026-05-04 15:44 | 51.37593 | 4.34377 | 13361 ft | 388 kts | 205° |
| 2026-05-04 15:45 | 51.35156 | 4.32523 | 13019 ft | 387 kts | 205° |
| 2026-05-04 15:45 | 51.32720 | 4.30704 | 12677 ft | 385 kts | 202° |
| 2026-05-04 15:45 | 51.30130 | 4.29718 | 12334 ft | 383 kts | 184° |
| 2026-05-04 15:45 | 51.27495 | 4.30149 | 12006 ft | 382 kts | 164° |
| 2026-05-04 15:46 | 51.25106 | 4.31959 | 11671 ft | 380 kts | 144° |
| 2026-05-04 15:46 | 51.23245 | 4.34924 | 11365 ft | 379 kts | 125° |
| 2026-05-04 15:46 | 51.21952 | 4.38515 | 11068 ft | 367 kts | 120° |
| 2026-05-04 15:46 | 51.21475 | 4.39697 | 10962 ft | 362 kts | 127° |
| 2026-05-04 15:47 | 51.19610 | 4.42232 | 10670 ft | 349 kts | 154° |
| 2026-05-04 15:47 | 51.18079 | 4.43020 | 10480 ft | 341 kts | 172° |
| 2026-05-04 15:47 | 51.15065 | 4.42200 | 10095 ft | 327 kts | 207° |
| 2026-05-04 15:47 | 51.13189 | 4.40253 | 9807 ft | 319 kts | 219° |
| 2026-05-04 15:48 | 51.11489 | 4.38040 | 9501 ft | 312 kts | 218° |
| 2026-05-04 15:48 | 51.10332 | 4.36650 | 9282 ft | 307 kts | 216° |
| 2026-05-04 15:48 | 51.06920 | 4.32763 | 8692 ft | 296 kts | 216° |
| 2026-05-04 15:49 | 51.05262 | 4.30876 | 8413 ft | 291 kts | 216° |
| 2026-05-04 15:49 | 51.03634 | 4.29000 | 8117 ft | 287 kts | 216° |
| 2026-05-04 15:49 | 51.02037 | 4.27137 | 7841 ft | 284 kts | 217° |
| 2026-05-04 15:49 | 51.00455 | 4.25281 | 7563 ft | 281 kts | 217° |
| 2026-05-04 15:50 | 50.98886 | 4.23437 | 7301 ft | 279 kts | 217° |
| 2026-05-04 15:50 | 50.97332 | 4.21607 | 7026 ft | 278 kts | 217° |
| 2026-05-04 15:50 | 50.95798 | 4.19802 | 6758 ft | 277 kts | 217° |
| 2026-05-04 15:50 | 50.94232 | 4.17964 | 6488 ft | 276 kts | 217° |
| 2026-05-04 15:51 | 50.92677 | 4.16201 | 6211 ft | 275 kts | 211° |
| 2026-05-04 15:51 | 50.90911 | 4.15046 | 5928 ft | 275 kts | 194° |
| 2026-05-04 15:51 | 50.89014 | 4.14768 | 5642 ft | 275 kts | 176° |
| 2026-05-04 15:51 | 50.87136 | 4.15322 | 5364 ft | 274 kts | 166° |
| 2026-05-04 15:52 | 50.85292 | 4.16059 | 5085 ft | 273 kts | 166° |
| 2026-05-04 15:52 | 50.83458 | 4.16785 | 4814 ft | 271 kts | 166° |
| 2026-05-04 15:52 | 50.81623 | 4.17509 | 4528 ft | 271 kts | 166° |
| 2026-05-04 15:52 | 50.79790 | 4.18224 | 4242 ft | 271 kts | 166° |
| 2026-05-04 15:53 | 50.77971 | 4.18934 | 3966 ft | 268 kts | 166° |
| 2026-05-04 15:53 | 50.76160 | 4.19639 | 3680 ft | 267 kts | 166° |
| 2026-05-04 15:53 | 50.74353 | 4.20341 | 3408 ft | 266 kts | 166° |
| 2026-05-04 15:53 | 50.72564 | 4.21036 | 3140 ft | 264 kts | 166° |
| 2026-05-04 15:54 | 50.70821 | 4.21795 | 2853 ft | 254 kts | 155° |
| 2026-05-04 15:54 | 50.69493 | 4.23496 | 2573 ft | 245 kts | 121° |
| 2026-05-04 15:54 | 50.69004 | 4.25965 | 2301 ft | 233 kts | 87° |
| 2026-05-04 15:54 | 50.69292 | 4.28443 | 2042 ft | 231 kts | 74° |
| 2026-05-04 15:55 | 50.69684 | 4.30876 | 1964 ft | 227 kts | 75° |
| 2026-05-04 15:55 | 50.70064 | 4.33289 | 1974 ft | 227 kts | 75° |
| 2026-05-04 15:55 | 50.70442 | 4.35709 | 1975 ft | 225 kts | 75° |
| 2026-05-04 15:55 | 50.70803 | 4.38025 | 1970 ft | 210 kts | 75° |
| 2026-05-04 15:56 | 50.71199 | 4.40159 | 1972 ft | 197 kts | 62° |
| 2026-05-04 15:56 | 50.72008 | 4.41811 | 2020 ft | 182 kts | 38° |
| 2026-05-04 15:56 | 50.73046 | 4.42761 | 2009 ft | 165 kts | 19° |
| 2026-05-04 15:56 | 50.74104 | 4.43211 | 1982 ft | 157 kts | 13° |
| 2026-05-04 15:57 | 50.75183 | 4.43650 | 1984 ft | 162 kts | 14° |
| 2026-05-04 15:57 | 50.76281 | 4.44096 | 1984 ft | 163 kts | 14° |
| 2026-05-04 15:57 | 50.77378 | 4.44542 | 1983 ft | 163 kts | 14° |
| 2026-05-04 15:57 | 50.78478 | 4.44988 | 1985 ft | 163 kts | 14° |
| 2026-05-04 15:58 | 50.79579 | 4.45434 | 1960 ft | 162 kts | 14° |
| 2026-05-04 15:58 | 50.80665 | 4.45875 | 1842 ft | 157 kts | 14° |
| 2026-05-04 15:58 | 50.81674 | 4.46286 | 1605 ft | 145 kts | 14° |
| 2026-05-04 15:58 | 50.82622 | 4.46671 | 1439 ft | 137 kts | 14° |
| 2026-05-04 15:59 | 50.83538 | 4.47043 | 1275 ft | 134 kts | 13° |
| 2026-05-04 15:59 | 50.84439 | 4.47410 | 1068 ft | 134 kts | 14° |
| 2026-05-04 15:59 | 50.85337 | 4.47795 | 874 ft | 133 kts | 15° |
| 2026-05-04 15:59 | 50.86237 | 4.48135 | 774 ft | 134 kts | 13° |
| 2026-05-04 16:00 | 50.87143 | 4.48487 | 599 ft | 134 kts | 14° |
| 2026-05-04 16:00 | 50.88013 | 4.48851 | 406 ft | 134 kts | 14° |
| 2026-05-04 16:00 | 50.88903 | 4.49222 | 222 ft | 133 kts | 13° |
| 2026-05-04 16:00 | 50.89684 | 4.49546 | 152 ft | 83 kts | 15° |
| 2026-05-04 16:01 | 50.90067 | 4.49691 | 132 ft | 43 kts | 10° |
| 2026-05-04 16:01 | 50.90234 | 4.49699 | 125 ft | 17 kts | 349° |
| 2026-05-04 16:01 | 50.90321 | 4.49664 | 122 ft | 0 kts | 345° |
| 2026-05-04 16:01 | 50.90347 | 4.49653 | 124 ft | 9 kts | 344° |
| 2026-05-04 16:02 | 50.90401 | 4.49614 | 122 ft | 7 kts | 323° |
| 2026-05-04 16:02 | 50.90442 | 4.49562 | 123 ft | 7 kts | 319° |
| 2026-05-04 16:02 | 50.90430 | 4.49422 | 120 ft | 7 kts | 244° |
| 2026-05-04 16:03 | 50.90411 | 4.49355 | 123 ft | 6 kts | 244° |
| 2026-05-04 16:03 | 50.90394 | 4.49298 | 124 ft | 6 kts | 245° |
| 2026-05-04 16:03 | 50.90377 | 4.49239 | 124 ft | 7 kts | 246° |
| 2026-05-04 16:03 | 50.90346 | 4.49127 | 122 ft | 8 kts | 246° |
| 2026-05-04 16:04 | 50.90323 | 4.49046 | 120 ft | 8 kts | 245° |
| 2026-05-04 16:04 | 50.90362 | 4.48949 | 121 ft | 6 kts | 334° |
| 2026-05-04 16:04 | 50.90379 | 4.48936 | 120 ft | 0 kts | 335° |